Terminal Aerodrome Forecast
Issued by NWS

Home | Current Version | Previous Version | Text Only | Print | Product List | Glossary On
Versions: 1 2 3 4 5 6 7 8 9 10 11 12 13 14 15 16 17
000
FTUS44 KMAF 220814 AAA
TAFHOB
TAF AMD
KHOB 220814Z 2208/2306 13006KT P6SM BKN250
     FM221600 15009G19KT P6SM SCT045 BKN250
     FM230200 VRB03KT P6SM FEW040 BKN200=

USA.gov is the U.S. government's official web portal to all federal, state and local government web resources and services.